createdAt,value
2017-11-18T00:00:14.567Z,942.20
2017-11-18T00:01:14.562Z,942.21
2017-11-18T00:02:14.560Z,942.18
2017-11-18T00:03:14.549Z,942.21
2017-11-18T00:04:14.543Z,942.20
2017-11-18T00:05:14.587Z,942.20
2017-11-18T00:06:14.531Z,942.18
2017-11-18T00:07:14.526Z,942.21
2017-11-18T00:08:14.519Z,942.18
2017-11-18T00:09:14.514Z,942.18
2017-11-18T00:10:14.507Z,942.16
2017-11-18T00:11:14.504Z,942.15
2017-11-18T00:12:14.495Z,942.13
2017-11-18T00:13:14.490Z,942.17
2017-11-18T00:14:14.488Z,942.09
2017-11-18T00:15:14.477Z,942.12
2017-11-18T00:16:14.476Z,942.13
2017-11-18T00:17:14.467Z,942.12
2017-11-18T00:18:14.459Z,942.07
2017-11-18T00:19:14.454Z,942.06
2017-11-18T00:20:14.448Z,942.08
2017-11-18T00:21:14.441Z,942.04
2017-11-18T00:22:14.438Z,942.04
2017-11-18T00:23:14.429Z,942.05
2017-11-18T00:24:14.423Z,942.01
2017-11-18T00:25:14.417Z,941.98
2017-11-18T00:26:14.411Z,942.00
2017-11-18T00:27:14.406Z,942.00
2017-11-18T00:28:14.400Z,942.01
2017-11-18T00:29:14.394Z,942.03
2017-11-18T00:30:14.387Z,941.99
2017-11-18T00:31:14.382Z,942.00
2017-11-18T00:32:14.375Z,941.99
2017-11-18T00:33:14.371Z,941.96
2017-11-18T00:34:14.363Z,941.92
2017-11-18T00:35:14.358Z,941.93
2017-11-18T00:36:14.352Z,941.93
2017-11-18T00:37:14.347Z,941.90
2017-11-18T00:38:14.341Z,941.88
2017-11-18T00:39:14.333Z,941.87
2017-11-18T00:40:14.329Z,941.82
2017-11-18T00:41:14.322Z,941.79
2017-11-18T00:42:14.316Z,941.77
2017-11-18T00:43:14.310Z,941.74
2017-11-18T00:44:14.305Z,941.75
2017-11-18T00:45:14.299Z,941.72
2017-11-18T00:46:14.299Z,941.71
2017-11-18T00:47:14.287Z,941.69
2017-11-18T00:48:14.281Z,941.64
2017-11-18T00:49:14.289Z,941.64
2017-11-18T00:50:14.272Z,941.64
2017-11-18T00:51:14.261Z,941.63
2017-11-18T00:52:14.255Z,941.61
2017-11-18T00:53:14.250Z,941.60
2017-11-18T00:54:14.244Z,941.58
2017-11-18T00:55:14.238Z,941.61
2017-11-18T00:56:14.236Z,941.58
2017-11-18T00:57:14.227Z,941.58
2017-11-18T00:58:14.220Z,941.53
2017-11-18T00:59:14.215Z,941.59
2017-11-18T01:00:14.208Z,941.54
2017-11-18T01:01:14.211Z,941.55
2017-11-18T01:02:14.195Z,941.56
2017-11-18T01:03:14.194Z,941.51
2017-11-18T01:04:14.184Z,941.53
2017-11-18T01:05:14.179Z,941.53
2017-11-18T01:06:14.175Z,941.49
2017-11-18T01:07:14.166Z,941.48
2017-11-18T01:08:14.161Z,941.44
2017-11-18T01:09:14.156Z,941.43
2017-11-18T01:10:14.151Z,941.41
2017-11-18T01:11:14.143Z,941.44
2017-11-18T01:12:14.143Z,941.40
2017-11-18T01:13:14.140Z,941.36
2017-11-18T01:14:14.123Z,941.35
2017-11-18T01:15:14.119Z,941.36
2017-11-18T01:16:14.111Z,941.32
2017-11-18T01:17:14.113Z,941.33
2017-11-18T01:18:14.099Z,941.30
2017-11-18T01:19:14.094Z,941.27
2017-11-18T01:20:14.088Z,941.30
2017-11-18T01:21:14.080Z,941.28
2017-11-18T01:22:14.074Z,941.30
2017-11-18T01:23:14.071Z,941.23
2017-11-18T01:24:14.066Z,941.26
2017-11-18T01:25:14.057Z,941.25
2017-11-18T01:26:14.050Z,941.25
2017-11-18T01:27:14.045Z,941.20
2017-11-18T01:28:14.038Z,941.20
2017-11-18T01:29:14.031Z,941.20
2017-11-18T01:30:14.024Z,941.16
2017-11-18T01:31:14.020Z,941.16
2017-11-18T01:32:14.013Z,941.18
2017-11-18T01:33:14.006Z,941.18
2017-11-18T01:34:13.999Z,941.20
2017-11-18T01:35:13.993Z,941.18
2017-11-18T01:36:13.988Z,941.19
2017-11-18T01:37:13.983Z,941.21
2017-11-18T01:38:13.974Z,941.23
2017-11-18T01:39:13.968Z,941.21
2017-11-18T01:40:13.963Z,941.21
2017-11-18T01:41:14.007Z,941.19
2017-11-18T01:42:13.949Z,941.17
2017-11-18T01:43:13.945Z,941.18
2017-11-18T01:44:13.937Z,941.18
2017-11-18T01:45:13.932Z,941.15
2017-11-18T01:46:13.925Z,941.14
2017-11-18T01:47:13.918Z,941.14
2017-11-18T01:48:13.911Z,941.11
2017-11-18T01:49:13.905Z,941.10
2017-11-18T01:50:13.900Z,941.14
2017-11-18T01:51:13.892Z,941.12
2017-11-18T01:52:13.886Z,941.13
2017-11-18T01:53:13.879Z,941.17
2017-11-18T01:54:13.873Z,941.15
2017-11-18T01:55:13.867Z,941.13
2017-11-18T01:56:13.861Z,941.16
2017-11-18T01:57:13.909Z,941.16
2017-11-18T01:58:13.848Z,941.17
2017-11-18T01:59:13.840Z,941.18
2017-11-18T02:00:13.835Z,941.18
2017-11-18T02:01:13.833Z,941.21
2017-11-18T02:02:13.822Z,941.22
2017-11-18T02:03:13.815Z,941.26
2017-11-18T02:04:13.810Z,941.28
2017-11-18T02:05:13.803Z,941.28
2017-11-18T02:06:13.796Z,941.30
2017-11-18T02:07:13.841Z,941.24
2017-11-18T02:08:13.791Z,941.30
2017-11-18T02:09:13.778Z,941.28
2017-11-18T02:10:13.769Z,941.26
2017-11-18T02:11:13.766Z,941.21
2017-11-18T02:12:13.758Z,941.28
2017-11-18T02:13:13.752Z,941.21
2017-11-18T02:14:13.751Z,941.24
2017-11-18T02:15:13.738Z,941.20
2017-11-18T02:16:13.733Z,941.24
2017-11-18T02:17:13.726Z,941.21
2017-11-18T02:18:13.719Z,941.24
2017-11-18T02:19:13.713Z,941.22
2017-11-18T02:20:13.708Z,941.22
2017-11-18T02:21:13.701Z,941.24
2017-11-18T02:22:13.694Z,941.25
2017-11-18T02:23:13.688Z,941.21
2017-11-18T02:24:13.681Z,941.22
2017-11-18T02:25:13.676Z,941.26
2017-11-18T02:26:13.669Z,941.25
2017-11-18T02:27:13.664Z,941.31
2017-11-18T02:28:13.656Z,941.31
2017-11-18T02:29:13.650Z,941.29
2017-11-18T02:30:13.644Z,941.28
2017-11-18T02:31:13.642Z,941.30
2017-11-18T02:32:13.633Z,941.28
2017-11-18T02:33:13.625Z,941.34
2017-11-18T02:34:13.621Z,941.34
2017-11-18T02:35:13.612Z,941.33
2017-11-18T02:36:13.607Z,941.33
2017-11-18T02:37:13.600Z,941.29
2017-11-18T02:38:13.595Z,941.36
2017-11-18T02:39:13.588Z,941.28
2017-11-18T02:40:13.582Z,941.31
2017-11-18T02:41:13.577Z,941.34
2017-11-18T02:42:13.569Z,941.32
2017-11-18T02:43:13.562Z,941.32
2017-11-18T02:44:13.557Z,941.30
2017-11-18T02:45:13.554Z,941.30
2017-11-18T02:46:13.546Z,941.33
2017-11-18T02:47:13.538Z,941.33
2017-11-18T02:48:13.533Z,941.31
2017-11-18T02:49:13.527Z,941.36
2017-11-18T02:50:13.519Z,941.37
2017-11-18T02:51:13.523Z,941.39
2017-11-18T02:52:13.508Z,941.37
2017-11-18T02:53:13.502Z,941.38
2017-11-18T02:54:13.496Z,941.39
2017-11-18T02:55:13.488Z,941.40
2017-11-18T02:56:13.482Z,941.40
2017-11-18T02:57:13.476Z,941.36
2017-11-18T02:58:13.470Z,941.36
2017-11-18T02:59:13.464Z,941.35
2017-11-18T03:00:13.457Z,941.41
2017-11-18T03:01:13.464Z,941.40
2017-11-18T03:02:13.445Z,941.42
2017-11-18T03:03:13.439Z,941.48
2017-11-18T03:04:13.432Z,941.50
2017-11-18T03:05:13.428Z,941.52
2017-11-18T03:06:13.419Z,941.52
2017-11-18T03:07:13.414Z,941.55
2017-11-18T03:08:13.409Z,941.53
2017-11-18T03:09:13.403Z,941.54
2017-11-18T03:10:13.395Z,941.55
2017-11-18T03:11:13.389Z,941.63
2017-11-18T03:12:13.384Z,941.65
2017-11-18T03:13:13.385Z,941.61
2017-11-18T03:14:13.371Z,941.64
2017-11-18T03:15:13.365Z,941.63
2017-11-18T03:16:13.359Z,941.60
2017-11-18T03:17:13.353Z,941.63
2017-11-18T03:18:13.347Z,941.57
2017-11-18T03:19:13.341Z,941.61
2017-11-18T03:20:13.335Z,941.58
2017-11-18T03:21:13.329Z,941.57
2017-11-18T03:22:13.322Z,941.59
2017-11-18T03:23:13.317Z,941.63
2017-11-18T03:24:13.311Z,941.60
2017-11-18T03:25:13.304Z,941.56
2017-11-18T03:26:13.299Z,941.59
2017-11-18T03:27:13.293Z,941.59
2017-11-18T03:28:13.287Z,941.61
2017-11-18T03:29:13.281Z,941.61
2017-11-18T03:30:13.274Z,941.57
2017-11-18T03:31:13.269Z,941.59
2017-11-18T03:32:13.262Z,941.58
2017-11-18T03:33:13.256Z,941.56
2017-11-18T03:34:13.249Z,941.54
2017-11-18T03:35:13.243Z,941.55
2017-11-18T03:36:13.238Z,941.60
2017-11-18T03:37:13.233Z,941.60
2017-11-18T03:38:13.225Z,941.58
2017-11-18T03:39:13.218Z,941.56
2017-11-18T03:40:13.213Z,941.58
2017-11-18T03:41:13.258Z,941.58
2017-11-18T03:42:13.201Z,941.56
2017-11-18T03:43:13.194Z,941.58
2017-11-18T03:44:13.189Z,941.58
2017-11-18T03:45:13.184Z,941.60
2017-11-18T03:46:13.176Z,941.63
2017-11-18T03:47:13.169Z,941.65
2017-11-18T03:48:13.165Z,941.67
2017-11-18T03:49:13.158Z,941.67
2017-11-18T03:50:13.152Z,941.72
2017-11-18T03:51:13.145Z,941.73
2017-11-18T03:52:13.140Z,941.72
2017-11-18T03:53:13.134Z,941.71
2017-11-18T03:54:13.127Z,941.72
2017-11-18T03:55:13.123Z,941.70
2017-11-18T03:56:13.167Z,941.69
2017-11-18T03:57:13.110Z,941.69
2017-11-18T03:58:13.107Z,941.67
2017-11-18T03:59:13.097Z,941.71
2017-11-18T04:00:13.095Z,941.72
2017-11-18T04:01:13.085Z,941.75
2017-11-18T04:02:13.129Z,941.78
2017-11-18T04:03:13.085Z,941.74
2017-11-18T04:04:13.067Z,941.74
2017-11-18T04:05:13.062Z,941.74
2017-11-18T04:06:13.054Z,941.71
2017-11-18T04:07:13.048Z,941.77
2017-11-18T04:08:13.085Z,941.72
2017-11-18T04:09:13.037Z,941.70
2017-11-18T04:10:13.030Z,941.71
2017-11-18T04:11:13.024Z,941.70
2017-11-18T04:12:13.019Z,941.63
2017-11-18T04:13:13.012Z,941.63
2017-11-18T04:14:13.006Z,941.66
2017-11-18T04:15:13.000Z,941.68
2017-11-18T04:16:12.996Z,941.68
2017-11-18T04:17:12.989Z,941.66
2017-11-18T04:18:12.984Z,941.66
2017-11-18T04:19:12.977Z,941.66
2017-11-18T04:20:12.972Z,941.69
2017-11-18T04:21:12.966Z,941.71
2017-11-18T04:22:13.010Z,941.72
2017-11-18T04:23:12.954Z,941.72
2017-11-18T04:24:12.948Z,941.74
2017-11-18T04:25:12.942Z,941.71
2017-11-18T04:26:12.938Z,941.74
2017-11-18T04:27:12.929Z,941.73
2017-11-18T04:28:12.923Z,941.77
2017-11-18T04:29:12.918Z,941.75
2017-11-18T04:30:12.912Z,941.75
2017-11-18T04:31:12.906Z,941.71
2017-11-18T04:32:12.900Z,941.72
2017-11-18T04:33:12.945Z,941.72
2017-11-18T04:34:12.889Z,941.76
2017-11-18T04:35:12.881Z,941.71
2017-11-18T04:36:12.877Z,941.73
2017-11-18T04:37:12.871Z,941.72
2017-11-18T04:38:12.868Z,941.70
2017-11-18T04:39:12.858Z,941.69
2017-11-18T04:40:12.853Z,941.68
2017-11-18T04:41:12.848Z,941.64
2017-11-18T04:42:12.840Z,941.64
2017-11-18T04:43:12.836Z,941.66
2017-11-18T04:44:12.830Z,941.69
2017-11-18T04:45:12.823Z,941.70
2017-11-18T04:46:12.816Z,941.68
2017-11-18T04:47:12.811Z,941.68
2017-11-18T04:48:12.804Z,941.66
2017-11-18T04:49:12.801Z,941.70
2017-11-18T04:50:12.792Z,941.67
2017-11-18T04:51:12.788Z,941.66
2017-11-18T04:52:12.779Z,941.66
2017-11-18T04:53:12.826Z,941.70
2017-11-18T04:54:12.769Z,941.75
2017-11-18T04:55:12.763Z,941.72
2017-11-18T04:56:12.758Z,941.65
2017-11-18T04:57:12.753Z,941.69
2017-11-18T04:58:12.747Z,941.71
2017-11-18T04:59:12.741Z,941.76
2017-11-18T05:00:12.734Z,941.73
2017-11-18T05:01:12.728Z,941.80
2017-11-18T05:02:12.722Z,941.77
2017-11-18T05:03:12.715Z,941.80
2017-11-18T05:04:12.711Z,941.82
2017-11-18T05:05:12.705Z,941.83
2017-11-18T05:06:12.697Z,941.85
2017-11-18T05:07:12.692Z,941.85
2017-11-18T05:08:12.687Z,941.83
2017-11-18T05:09:12.681Z,941.81
2017-11-18T05:10:12.723Z,941.82
2017-11-18T05:11:12.667Z,941.77
2017-11-18T05:12:12.661Z,941.81
2017-11-18T05:13:12.656Z,941.81
2017-11-18T05:14:12.650Z,941.81
2017-11-18T05:15:12.644Z,941.82
2017-11-18T05:16:12.638Z,941.76
2017-11-18T05:17:12.631Z,941.82
2017-11-18T05:18:12.625Z,941.82
2017-11-18T05:19:12.617Z,941.79
2017-11-18T05:20:12.612Z,941.77
2017-11-18T05:21:12.606Z,941.75
2017-11-18T05:22:12.602Z,941.76
2017-11-18T05:23:12.593Z,941.70
2017-11-18T05:24:12.588Z,941.75
2017-11-18T05:25:12.583Z,941.73
2017-11-18T05:26:12.575Z,941.69
2017-11-18T05:27:12.568Z,941.64
2017-11-18T05:28:12.562Z,941.67
2017-11-18T05:29:12.559Z,941.67
2017-11-18T05:30:12.549Z,941.68
2017-11-18T05:31:12.544Z,941.67
2017-11-18T05:32:12.539Z,941.70
2017-11-18T05:33:12.538Z,941.64
2017-11-18T05:34:12.524Z,941.65
2017-11-18T05:35:12.518Z,941.65
2017-11-18T05:36:12.514Z,941.63
2017-11-18T05:37:12.505Z,941.67
2017-11-18T05:38:12.499Z,941.68
2017-11-18T05:39:12.492Z,941.70
2017-11-18T05:40:12.493Z,941.65
2017-11-18T05:41:12.481Z,941.68
2017-11-18T05:42:12.523Z,941.66
2017-11-18T05:43:12.468Z,941.68
2017-11-18T05:44:12.462Z,941.64
2017-11-18T05:45:12.456Z,941.60
2017-11-18T05:46:12.450Z,941.62
2017-11-18T05:47:12.444Z,941.62
2017-11-18T05:48:12.438Z,941.59
2017-11-18T05:49:12.435Z,941.60
2017-11-18T05:50:12.424Z,941.60
2017-11-18T05:51:12.420Z,941.57
2017-11-18T05:52:12.414Z,941.59
2017-11-18T05:53:12.417Z,941.54
2017-11-18T05:54:12.399Z,941.58
2017-11-18T05:55:12.395Z,941.55
2017-11-18T05:56:12.390Z,941.53
2017-11-18T05:57:12.384Z,941.47
2017-11-18T05:58:12.734Z,941.51
2017-11-18T05:59:12.371Z,941.49
2017-11-18T06:00:12.365Z,941.48
2017-11-18T06:01:12.410Z,941.45
2017-11-18T06:02:12.353Z,941.48
2017-11-18T06:03:12.346Z,941.48
2017-11-18T06:04:12.342Z,941.48
2017-11-18T06:05:12.336Z,941.51
2017-11-18T06:06:12.328Z,941.52
2017-11-18T06:07:12.324Z,941.53
2017-11-18T06:08:12.317Z,941.53
2017-11-18T06:09:12.312Z,941.58
2017-11-18T06:10:12.305Z,941.63
2017-11-18T06:11:12.308Z,941.57
2017-11-18T06:12:12.295Z,941.56
2017-11-18T06:13:12.290Z,941.55
2017-11-18T06:14:12.282Z,941.56
2017-11-18T06:15:12.277Z,941.54
2017-11-18T06:16:12.270Z,941.55
2017-11-18T06:17:12.264Z,941.54
2017-11-18T06:18:12.259Z,941.51
2017-11-18T06:19:12.252Z,941.52
2017-11-18T06:20:12.249Z,941.51
2017-11-18T06:21:12.242Z,941.53
2017-11-18T06:22:12.235Z,941.51
2017-11-18T06:23:12.230Z,941.49
2017-11-18T06:24:12.224Z,941.52
2017-11-18T06:25:12.217Z,941.57
2017-11-18T06:26:12.212Z,941.50
2017-11-18T06:27:12.213Z,941.53
2017-11-18T06:28:12.200Z,941.51
2017-11-18T06:29:12.244Z,941.53
2017-11-18T06:30:12.189Z,941.56
2017-11-18T06:31:12.181Z,941.60
2017-11-18T06:32:12.176Z,941.57
2017-11-18T06:33:12.172Z,941.62
2017-11-18T06:34:12.163Z,941.56
2017-11-18T06:35:12.160Z,941.54
2017-11-18T06:36:12.151Z,941.53
2017-11-18T06:37:12.147Z,941.53
2017-11-18T06:38:12.146Z,941.56
2017-11-18T06:39:12.135Z,941.56
2017-11-18T06:40:12.129Z,941.53
2017-11-18T06:41:12.123Z,941.53
2017-11-18T06:42:12.116Z,941.49
2017-11-18T06:43:12.161Z,941.50
2017-11-18T06:44:12.105Z,941.47
2017-11-18T06:45:12.099Z,941.44
2017-11-18T06:46:12.101Z,941.43
2017-11-18T06:47:12.086Z,941.44
2017-11-18T06:48:12.081Z,941.43
2017-11-18T06:49:12.076Z,941.40
2017-11-18T06:50:12.069Z,941.43
2017-11-18T06:51:12.064Z,941.44
2017-11-18T06:52:12.058Z,941.49
2017-11-18T06:53:12.054Z,941.53
2017-11-18T06:54:12.074Z,941.50
2017-11-18T06:55:12.038Z,941.50
2017-11-18T06:56:12.034Z,941.48
2017-11-18T06:57:12.028Z,941.53
2017-11-18T06:58:12.022Z,941.47
2017-11-18T06:59:12.016Z,941.48
2017-11-18T07:00:12.010Z,941.47
2017-11-18T07:01:12.010Z,941.56
2017-11-18T07:02:11.997Z,941.53
2017-11-18T07:03:11.992Z,941.55
2017-11-18T07:04:11.986Z,941.57
2017-11-18T07:05:11.980Z,941.56
2017-11-18T07:06:11.981Z,941.56
2017-11-18T07:07:11.970Z,941.55
2017-11-18T07:08:11.962Z,941.55
2017-11-18T07:09:11.957Z,941.54
2017-11-18T07:10:11.951Z,941.52
2017-11-18T07:11:11.945Z,941.53
2017-11-18T07:12:11.938Z,941.52
2017-11-18T07:13:11.939Z,941.51
2017-11-18T07:14:11.927Z,941.51
2017-11-18T07:15:11.972Z,941.52
2017-11-18T07:16:11.916Z,941.53
2017-11-18T07:17:11.911Z,941.55
2017-11-18T07:18:11.904Z,941.57
2017-11-18T07:19:11.898Z,941.58
2017-11-18T07:20:11.894Z,941.60
2017-11-18T07:21:11.888Z,941.58
2017-11-18T07:22:11.881Z,941.58
2017-11-18T07:23:11.876Z,941.59
2017-11-18T07:24:11.870Z,941.61
2017-11-18T07:25:11.864Z,941.57
2017-11-18T07:26:11.858Z,941.63
2017-11-18T07:27:11.853Z,941.65
2017-11-18T07:28:11.846Z,941.68
2017-11-18T07:29:11.842Z,941.70
2017-11-18T07:30:11.835Z,941.68
2017-11-18T07:31:11.831Z,941.71
2017-11-18T07:32:11.824Z,941.70
2017-11-18T07:33:11.820Z,941.70
2017-11-18T07:34:11.813Z,941.73
2017-11-18T07:35:11.857Z,941.69
2017-11-18T07:36:11.803Z,941.70
2017-11-18T07:37:11.797Z,941.71
2017-11-18T07:38:11.791Z,941.74
2017-11-18T07:39:11.785Z,941.73
2017-11-18T07:40:11.833Z,941.75
2017-11-18T07:41:11.775Z,941.77
2017-11-18T07:42:11.768Z,941.79
2017-11-18T07:43:11.763Z,941.78
2017-11-18T07:44:11.759Z,941.78
2017-11-18T07:45:11.804Z,941.84
2017-11-18T07:46:11.746Z,941.86
2017-11-18T07:47:11.741Z,941.89
2017-11-18T07:48:11.735Z,941.91
2017-11-18T07:49:11.731Z,941.91
2017-11-18T07:50:11.726Z,941.93
2017-11-18T07:51:11.719Z,941.90
2017-11-18T07:52:11.714Z,941.93
2017-11-18T07:53:11.709Z,941.89
2017-11-18T07:54:11.703Z,941.92
2017-11-18T07:55:11.698Z,941.92
2017-11-18T07:56:11.692Z,941.94
2017-11-18T07:57:11.686Z,941.94
2017-11-18T07:58:11.681Z,941.92
2017-11-18T07:59:11.674Z,941.92
2017-11-18T08:00:11.669Z,941.92
2017-11-18T08:01:11.666Z,941.94
2017-11-18T08:02:11.665Z,941.95
2017-11-18T08:03:11.653Z,941.97
2017-11-18T08:04:11.649Z,942.01
2017-11-18T08:05:11.641Z,941.99
2017-11-18T08:06:11.637Z,941.98
2017-11-18T08:07:11.631Z,941.95
2017-11-18T08:08:11.627Z,942.00
2017-11-18T08:09:11.621Z,941.98
2017-11-18T08:10:11.665Z,941.99
2017-11-18T08:11:11.612Z,941.96
2017-11-18T08:12:11.605Z,941.97
2017-11-18T08:13:11.600Z,941.97
2017-11-18T08:14:11.597Z,941.99
2017-11-18T08:15:11.589Z,942.00
2017-11-18T08:16:11.583Z,942.02
2017-11-18T08:17:11.578Z,941.99
2017-11-18T08:18:11.572Z,942.04
2017-11-18T08:19:11.567Z,942.02
2017-11-18T08:20:11.562Z,942.02
2017-11-18T08:21:11.558Z,942.02
2017-11-18T08:22:11.549Z,941.99
2017-11-18T08:23:11.546Z,941.99
2017-11-18T08:24:11.542Z,942.00
2017-11-18T08:25:11.535Z,941.95
2017-11-18T08:26:11.530Z,941.98
2017-11-18T08:27:11.525Z,941.93
2017-11-18T08:28:11.520Z,941.96
2017-11-18T08:29:11.515Z,941.94
2017-11-18T08:30:11.509Z,941.94
2017-11-18T08:31:11.503Z,941.94
2017-11-18T08:32:11.497Z,941.95
2017-11-18T08:33:11.492Z,941.94
2017-11-18T08:34:11.487Z,941.94
2017-11-18T08:35:11.481Z,941.92
2017-11-18T08:36:11.475Z,941.89
2017-11-18T08:37:11.480Z,941.88
2017-11-18T08:38:11.465Z,941.85
2017-11-18T08:39:11.459Z,941.83
2017-11-18T08:40:11.454Z,941.80
2017-11-18T08:41:11.449Z,941.83
2017-11-18T08:42:11.443Z,941.80
2017-11-18T08:43:11.437Z,941.80
2017-11-18T08:44:11.432Z,941.80
2017-11-18T08:45:11.427Z,941.77
2017-11-18T08:46:11.426Z,941.77
2017-11-18T08:47:11.417Z,941.79
2017-11-18T08:48:11.410Z,941.78
2017-11-18T08:49:11.407Z,941.82
2017-11-18T08:50:11.401Z,941.84
2017-11-18T08:51:11.394Z,941.81
2017-11-18T08:52:11.391Z,941.79
2017-11-18T08:53:11.385Z,941.80
2017-11-18T08:54:11.381Z,941.76
2017-11-18T08:55:11.374Z,941.73
2017-11-18T08:56:11.369Z,941.73
2017-11-18T08:57:11.366Z,941.75
2017-11-18T08:58:11.358Z,941.73
2017-11-18T08:59:11.356Z,941.69
2017-11-18T09:00:11.348Z,941.71
2017-11-18T09:01:11.343Z,941.71
2017-11-18T09:02:11.337Z,941.71
2017-11-18T09:03:11.333Z,941.72
2017-11-18T09:04:11.327Z,941.70
2017-11-18T09:05:11.322Z,941.70
2017-11-18T09:06:11.317Z,941.70
2017-11-18T09:07:11.312Z,941.71
2017-11-18T09:08:11.310Z,941.74
2017-11-18T09:09:11.305Z,941.71
2017-11-18T09:10:11.350Z,941.74
2017-11-18T09:11:11.291Z,941.72
2017-11-18T09:12:11.287Z,941.69
2017-11-18T09:13:11.282Z,941.72
2017-11-18T09:14:11.275Z,941.72
2017-11-18T09:15:11.269Z,941.74
2017-11-18T09:16:11.265Z,941.77
2017-11-18T09:17:11.261Z,941.81
2017-11-18T09:18:11.255Z,941.76
2017-11-18T09:19:11.250Z,941.77
2017-11-18T09:20:11.245Z,941.78
2017-11-18T09:21:11.241Z,941.77
2017-11-18T09:22:11.241Z,941.82
2017-11-18T09:23:11.230Z,941.82
2017-11-18T09:24:11.227Z,941.78
2017-11-18T09:25:11.274Z,941.81
2017-11-18T09:26:11.218Z,941.81
2017-11-18T09:27:11.215Z,941.80
2017-11-18T09:28:11.211Z,941.82
2017-11-18T09:29:11.207Z,941.79
2017-11-18T09:30:11.203Z,941.80
2017-11-18T09:31:11.200Z,941.81
2017-11-18T09:32:11.197Z,941.77
2017-11-18T09:33:11.192Z,941.76
2017-11-18T09:34:11.188Z,941.79
2017-11-18T09:35:11.182Z,941.76
2017-11-18T09:36:11.178Z,941.77
2017-11-18T09:37:11.178Z,941.78
2017-11-18T09:38:11.172Z,941.76
2017-11-18T09:39:11.168Z,941.76
2017-11-18T09:40:11.165Z,941.76
2017-11-18T09:41:11.161Z,941.74
2017-11-18T09:42:11.156Z,941.72
2017-11-18T09:43:11.163Z,941.74
2017-11-18T09:44:11.150Z,941.73
2017-11-18T09:45:11.147Z,941.72
2017-11-18T09:46:11.141Z,941.70
2017-11-18T09:47:11.138Z,941.71
2017-11-18T09:48:11.135Z,941.67
2017-11-18T09:49:11.130Z,941.66
2017-11-18T09:50:11.126Z,941.69
2017-11-18T09:51:11.124Z,941.65
2017-11-18T09:52:11.119Z,941.65
2017-11-18T09:53:11.117Z,941.64
2017-11-18T09:54:11.114Z,941.61
2017-11-18T09:55:11.107Z,941.61
2017-11-18T09:56:11.104Z,941.57
2017-11-18T09:57:11.104Z,941.60
2017-11-18T09:58:11.094Z,941.56
2017-11-18T09:59:11.092Z,941.54
2017-11-18T10:00:11.088Z,941.54
2017-11-18T10:01:11.086Z,941.56
2017-11-18T10:02:11.119Z,941.55
2017-11-18T10:03:11.078Z,941.54
2017-11-18T10:04:11.074Z,941.49
2017-11-18T10:05:11.071Z,941.51
2017-11-18T10:06:11.068Z,941.50
2017-11-18T10:07:11.065Z,941.49
2017-11-18T10:08:11.062Z,941.52
2017-11-18T10:09:11.058Z,941.52
2017-11-18T10:10:11.053Z,941.53
2017-11-18T10:11:11.050Z,941.53
2017-11-18T10:12:11.057Z,941.51
2017-11-18T10:13:11.047Z,941.47
2017-11-18T10:14:11.042Z,941.45
2017-11-18T10:15:11.039Z,941.46
2017-11-18T10:16:11.037Z,941.42
2017-11-18T10:17:11.034Z,941.43
2017-11-18T10:18:11.031Z,941.44
2017-11-18T10:19:11.027Z,941.45
2017-11-18T10:20:11.079Z,941.50
2017-11-18T10:21:11.072Z,941.41
2017-11-18T10:22:11.019Z,941.48
2017-11-18T10:23:11.017Z,941.46
2017-11-18T10:24:11.014Z,941.40
2017-11-18T10:25:11.012Z,941.43
2017-11-18T10:26:11.008Z,941.44
2017-11-18T10:27:11.005Z,941.43
2017-11-18T10:28:11.003Z,941.40
2017-11-18T10:29:11.000Z,941.37
2017-11-18T10:30:10.996Z,941.38
2017-11-18T10:31:10.994Z,941.38
2017-11-18T10:32:10.990Z,941.35
2017-11-18T10:33:10.989Z,941.38
2017-11-18T10:34:10.985Z,941.43
2017-11-18T10:35:10.982Z,941.43
2017-11-18T10:36:11.030Z,941.42
2017-11-18T10:37:10.977Z,941.45
2017-11-18T10:38:10.974Z,941.42
2017-11-18T10:39:10.973Z,941.43
2017-11-18T10:40:10.968Z,941.38
2017-11-18T10:41:10.966Z,941.33
2017-11-18T10:42:10.962Z,941.34
2017-11-18T10:43:10.960Z,941.30
2017-11-18T10:44:10.956Z,941.31
2017-11-18T10:45:10.953Z,941.29
2017-11-18T10:46:10.950Z,941.28
2017-11-18T10:47:10.947Z,941.30
2017-11-18T10:48:10.945Z,941.31
2017-11-18T10:49:10.942Z,941.26
2017-11-18T10:50:10.938Z,941.29
2017-11-18T10:51:10.934Z,941.32
2017-11-18T10:52:10.931Z,941.31
2017-11-18T10:53:10.979Z,941.30
2017-11-18T10:54:10.925Z,941.29
2017-11-18T10:55:10.921Z,941.26
2017-11-18T10:56:10.923Z,941.25
2017-11-18T10:57:10.917Z,941.24
2017-11-18T10:58:10.913Z,941.23
2017-11-18T10:59:10.917Z,941.20
2017-11-18T11:00:10.906Z,941.18
2017-11-18T11:01:10.953Z,941.17
2017-11-18T11:02:10.899Z,941.12
2017-11-18T11:03:10.897Z,941.15
2017-11-18T11:04:10.893Z,941.14
2017-11-18T11:05:10.890Z,941.11
2017-11-18T11:06:10.936Z,941.09
2017-11-18T11:07:10.882Z,941.06
2017-11-18T11:08:10.878Z,941.09
2017-11-18T11:09:10.875Z,941.06
2017-11-18T11:10:10.872Z,941.05
2017-11-18T11:11:10.869Z,941.07
2017-11-18T11:12:10.870Z,941.03
2017-11-18T11:13:10.862Z,941.07
2017-11-18T11:14:10.859Z,941.01
2017-11-18T11:15:10.861Z,941.06
2017-11-18T11:16:10.853Z,940.96
2017-11-18T11:17:10.850Z,940.98
2017-11-18T11:18:10.847Z,940.96
2017-11-18T11:19:10.892Z,940.94
2017-11-18T11:20:10.840Z,940.94
2017-11-18T11:21:10.837Z,940.92
2017-11-18T11:22:10.832Z,940.92
2017-11-18T11:23:10.828Z,940.92
2017-11-18T11:24:10.826Z,940.93
2017-11-18T11:25:10.823Z,940.97
2017-11-18T11:26:10.823Z,940.94
2017-11-18T11:27:10.814Z,940.97
2017-11-18T11:28:10.811Z,940.99
2017-11-18T11:29:10.807Z,940.98
2017-11-18T11:30:10.805Z,940.96
2017-11-18T11:31:10.801Z,940.92
2017-11-18T11:32:10.797Z,940.95
2017-11-18T11:33:10.795Z,940.92
2017-11-18T11:34:10.789Z,940.92
2017-11-18T11:35:10.789Z,940.89
2017-11-18T11:36:10.785Z,940.88
2017-11-18T11:37:10.781Z,940.92
2017-11-18T11:38:10.776Z,940.88
2017-11-18T11:39:10.772Z,940.86
2017-11-18T11:40:10.777Z,940.91
2017-11-18T11:41:10.769Z,940.93
2017-11-18T11:42:10.762Z,940.92
2017-11-18T11:43:10.762Z,940.90
2017-11-18T11:44:10.757Z,940.89
2017-11-18T11:45:10.759Z,940.88
2017-11-18T11:46:10.751Z,940.85
2017-11-18T11:47:10.747Z,940.80
2017-11-18T11:48:10.751Z,940.82
2017-11-18T11:49:10.741Z,940.80
2017-11-18T11:50:10.739Z,940.79
2017-11-18T11:51:10.735Z,940.81
2017-11-18T11:52:10.732Z,940.81
2017-11-18T11:53:10.731Z,940.83
2017-11-18T11:54:10.725Z,940.79
2017-11-18T11:55:10.722Z,940.86
2017-11-18T11:56:10.720Z,940.85
2017-11-18T11:57:10.717Z,940.82
2017-11-18T11:58:10.713Z,940.83
2017-11-18T11:59:10.710Z,940.83
2017-11-18T12:00:10.707Z,940.84
2017-11-18T12:01:10.704Z,940.85
2017-11-18T12:02:10.702Z,940.85
2017-11-18T12:03:10.698Z,940.86
2017-11-18T12:04:10.699Z,940.87
2017-11-18T12:05:10.693Z,940.90
2017-11-18T12:06:10.689Z,940.82
2017-11-18T12:07:10.687Z,940.83
2017-11-18T12:08:10.684Z,940.82
2017-11-18T12:09:10.682Z,940.79
2017-11-18T12:10:10.677Z,940.77
2017-11-18T12:11:10.674Z,940.74
2017-11-18T12:12:10.671Z,940.73
2017-11-18T12:13:10.669Z,940.69
2017-11-18T12:14:10.663Z,940.72
2017-11-18T12:15:10.662Z,940.68
2017-11-18T12:16:10.659Z,940.67
2017-11-18T12:17:10.655Z,940.63
2017-11-18T12:18:10.651Z,940.65
2017-11-18T12:19:10.648Z,940.67
2017-11-18T12:20:10.646Z,940.62
2017-11-18T12:21:10.642Z,940.61
2017-11-18T12:22:10.644Z,940.65
2017-11-18T12:23:10.634Z,940.59
2017-11-18T12:24:10.631Z,940.55
2017-11-18T12:25:10.638Z,940.53
2017-11-18T12:26:10.625Z,940.52
2017-11-18T12:27:10.621Z,940.52
2017-11-18T12:28:10.617Z,940.53